createdAt,value
2019-05-14T00:01:06.350Z,9.44
2019-05-14T00:03:36.155Z,9.42
2019-05-14T00:06:05.959Z,9.03
2019-05-14T00:08:36.219Z,8.85
2019-05-14T00:11:05.406Z,8.78
2019-05-14T00:13:34.995Z,9.00
2019-05-14T00:16:04.703Z,8.78
2019-05-14T00:18:35.846Z,9.00
2019-05-14T00:21:06.080Z,8.81
2019-05-14T00:23:37.247Z,8.69
2019-05-14T00:26:08.092Z,8.86
2019-05-14T00:28:42.240Z,8.98
2019-05-14T00:31:12.688Z,8.94
2019-05-14T00:33:42.409Z,9.07
2019-05-14T00:36:12.790Z,9.06
2019-05-14T00:38:42.514Z,8.97
2019-05-14T00:41:12.757Z,8.95
2019-05-14T00:43:43.501Z,8.69
2019-05-14T00:46:13.793Z,8.69
2019-05-14T00:48:46.899Z,8.71
2019-05-14T00:51:16.261Z,8.43
2019-05-14T00:53:45.747Z,8.65
2019-05-14T00:56:15.209Z,8.26
2019-05-14T00:58:44.685Z,8.17
2019-05-14T01:01:14.980Z,8.15
2019-05-14T01:03:44.553Z,8.08
2019-05-14T01:06:14.757Z,8.00
2019-05-14T01:08:44.240Z,8.10
2019-05-14T01:11:14.409Z,7.63
2019-05-14T01:13:46.584Z,7.61
2019-05-14T01:16:16.029Z,7.76
2019-05-14T01:18:45.236Z,7.37
2019-05-14T01:21:18.003Z,7.41
2019-05-14T01:23:48.765Z,7.30
2019-05-14T01:26:23.443Z,7.33
2019-05-14T01:28:53.285Z,7.08
2019-05-14T01:31:26.426Z,7.17
2019-05-14T01:33:57.986Z,7.05
2019-05-14T01:36:31.871Z,7.28
2019-05-14T01:39:03.421Z,7.50
2019-05-14T01:41:34.790Z,7.39
2019-05-14T01:44:04.352Z,7.55
2019-05-14T01:46:33.790Z,7.61
2019-05-14T01:49:05.880Z,7.50
2019-05-14T01:51:38.066Z,7.43
2019-05-14T01:54:08.125Z,7.17
2019-05-14T01:56:38.364Z,7.30
2019-05-14T01:59:08.115Z,6.89
2019-05-14T02:01:38.354Z,7.05
2019-05-14T02:04:11.633Z,6.87
2019-05-14T02:06:45.280Z,6.77
2019-05-14T02:09:21.585Z,6.69
2019-05-14T02:11:51.969Z,6.66
2019-05-14T02:14:22.332Z,6.77
2019-05-14T02:16:51.506Z,6.78
2019-05-14T02:19:22.163Z,6.92
2019-05-14T02:21:56.366Z,6.89
2019-05-14T02:24:25.800Z,7.00
2019-05-14T02:26:55.998Z,6.70
2019-05-14T02:29:26.185Z,6.71
2019-05-14T02:31:55.660Z,6.80
2019-05-14T02:34:29.931Z,6.82
2019-05-14T02:37:00.343Z,6.72
2019-05-14T02:39:33.338Z,6.62
2019-05-14T02:42:04.901Z,6.68
2019-05-14T02:44:35.156Z,6.67
2019-05-14T02:47:05.421Z,6.65
2019-05-14T02:49:39.674Z,6.51
2019-05-14T02:52:10.465Z,6.46
2019-05-14T02:54:40.851Z,6.52
2019-05-14T02:57:11.073Z,6.43
2019-05-14T02:59:41.725Z,6.40
2019-05-14T03:02:14.057Z,6.41
2019-05-14T03:04:45.353Z,6.46
2019-05-14T03:07:19.402Z,6.49
2019-05-14T03:09:50.319Z,6.35
2019-05-14T03:12:20.990Z,6.30
2019-05-14T03:14:50.751Z,6.09
2019-05-14T03:17:20.979Z,6.10
2019-05-14T03:19:50.928Z,5.92
2019-05-14T03:22:27.363Z,5.83
2019-05-14T03:24:53.909Z,5.87
2019-05-14T03:27:23.096Z,5.88
2019-05-14T03:29:58.607Z,5.93
2019-05-14T03:32:33.012Z,5.86
2019-05-14T03:35:04.086Z,5.77
2019-05-14T03:37:31.250Z,5.81
2019-05-14T03:40:01.249Z,5.85
2019-05-14T03:42:31.563Z,5.78
2019-05-14T03:45:01.765Z,5.79
2019-05-14T03:47:33.585Z,5.74
2019-05-14T03:50:03.639Z,5.70
2019-05-14T03:52:33.882Z,5.51
2019-05-14T03:55:04.691Z,5.49
2019-05-14T03:57:35.227Z,5.36
2019-05-14T04:00:05.327Z,5.48
2019-05-14T04:02:34.732Z,5.63
2019-05-14T04:05:04.793Z,5.53
2019-05-14T04:07:39.130Z,5.66
2019-05-14T04:10:11.945Z,5.70
2019-05-14T04:12:48.903Z,5.71
2019-05-14T04:15:19.274Z,5.66
2019-05-14T04:17:50.514Z,5.71
2019-05-14T04:20:19.999Z,5.84
2019-05-14T04:22:53.484Z,5.88
2019-05-14T04:25:29.501Z,5.73
2019-05-14T04:28:02.906Z,5.75
2019-05-14T04:30:40.117Z,5.88
2019-05-14T04:33:11.179Z,5.81
2019-05-14T04:35:41.210Z,5.87
2019-05-14T04:38:11.271Z,5.86
2019-05-14T04:40:41.537Z,5.88
2019-05-14T04:43:11.974Z,6.02
2019-05-14T04:45:43.101Z,6.12
2019-05-14T04:48:31.402Z,6.20
2019-05-14T04:50:49.997Z,6.12
2019-05-14T04:53:19.994Z,6.03
2019-05-14T04:55:52.181Z,6.07
2019-05-14T04:58:31.698Z,5.97
2019-05-14T05:01:01.108Z,5.96
2019-05-14T05:03:31.931Z,6.19
2019-05-14T05:06:09.613Z,6.21
2019-05-14T05:08:39.496Z,6.33
2019-05-14T05:11:13.010Z,6.25
2019-05-14T05:13:43.245Z,6.34
2019-05-14T05:16:13.132Z,6.38
2019-05-14T05:18:49.331Z,6.49
2019-05-14T05:21:21.432Z,6.53
2019-05-14T05:23:50.649Z,6.47
2019-05-14T05:26:20.862Z,6.70
2019-05-14T05:29:02.945Z,6.76
2019-05-14T05:31:21.830Z,6.81
2019-05-14T05:33:52.097Z,6.77
2019-05-14T05:36:21.599Z,6.94
2019-05-14T05:38:50.834Z,6.91
2019-05-14T05:41:20.902Z,6.78
2019-05-14T05:43:50.206Z,6.88
2019-05-14T05:46:19.731Z,6.89
2019-05-14T05:48:49.763Z,6.96
2019-05-14T05:51:19.294Z,7.12
2019-05-14T05:53:49.480Z,7.18
2019-05-14T05:56:19.501Z,7.40
2019-05-14T05:58:49.224Z,7.51
2019-05-14T06:01:19.628Z,7.58
2019-05-14T06:03:49.611Z,7.84
2019-05-14T06:06:19.491Z,7.74
2019-05-14T06:08:49.490Z,7.86
2019-05-14T06:11:19.423Z,7.89
2019-05-14T06:13:49.601Z,7.79
2019-05-14T06:16:19.366Z,7.80
2019-05-14T06:18:48.857Z,7.95
2019-05-14T06:21:19.087Z,8.06
2019-05-14T06:23:49.154Z,8.24
2019-05-14T06:26:19.348Z,8.10
2019-05-14T06:28:49.679Z,8.17
2019-05-14T06:31:19.792Z,8.27
2019-05-14T06:33:49.547Z,8.11
2019-05-14T06:36:20.201Z,8.21
2019-05-14T06:38:49.762Z,8.39
2019-05-14T06:41:19.513Z,8.53
2019-05-14T06:43:48.991Z,8.73
2019-05-14T06:46:19.683Z,8.82
2019-05-14T06:48:49.874Z,8.81
2019-05-14T06:51:23.301Z,8.78
2019-05-14T06:53:52.464Z,8.93
2019-05-14T06:56:22.993Z,9.04
2019-05-14T06:58:52.170Z,9.35
2019-05-14T07:01:21.706Z,9.55
2019-05-14T07:03:53.229Z,9.54
2019-05-14T07:06:22.767Z,9.42
2019-05-14T07:08:52.926Z,9.41
2019-05-14T07:11:22.255Z,9.68
2019-05-14T07:13:51.692Z,9.76
2019-05-14T07:16:20.898Z,9.96
2019-05-14T07:18:53.923Z,9.95
2019-05-14T07:21:21.294Z,10.07
2019-05-14T07:23:50.485Z,10.15
2019-05-14T07:26:19.755Z,10.24
2019-05-14T07:28:49.213Z,10.25
2019-05-14T07:31:18.829Z,10.22
2019-05-14T07:33:49.356Z,10.13
2019-05-14T07:36:19.175Z,10.49
2019-05-14T07:38:49.523Z,10.58
2019-05-14T07:41:19.189Z,10.73
2019-05-14T07:43:48.764Z,10.81
2019-05-14T07:46:19.129Z,10.80
2019-05-14T07:49:03.916Z,10.69
2019-05-14T07:51:20.987Z,10.75
2019-05-14T07:53:50.574Z,10.94
2019-05-14T07:56:19.777Z,11.06
2019-05-14T07:58:49.379Z,11.24
2019-05-14T08:01:19.261Z,11.22
2019-05-14T08:03:49.197Z,11.44
2019-05-14T08:06:19.296Z,11.54
2019-05-14T08:08:49.420Z,11.49
2019-05-14T08:11:19.254Z,11.75
2019-05-14T08:13:49.372Z,11.77
2019-05-14T08:16:18.990Z,11.99
2019-05-14T08:18:48.980Z,12.05
2019-05-14T08:21:19.562Z,12.22
2019-05-14T08:23:52.201Z,12.21
2019-05-14T08:26:21.658Z,12.38
2019-05-14T08:28:50.832Z,12.33
2019-05-14T08:31:20.038Z,12.48
2019-05-14T08:33:49.336Z,12.44
2019-05-14T08:36:18.731Z,12.40
2019-05-14T08:38:50.149Z,12.69
2019-05-14T08:41:20.184Z,12.77
2019-05-14T08:43:49.765Z,12.76
2019-05-14T08:46:19.488Z,12.70
2019-05-14T08:48:49.571Z,12.88
2019-05-14T08:51:19.079Z,13.01
2019-05-14T08:53:50.422Z,13.06
2019-05-14T08:56:19.772Z,13.57
2019-05-14T08:58:50.031Z,13.58
2019-05-14T09:01:19.831Z,13.50
2019-05-14T09:03:49.602Z,13.77
2019-05-14T09:06:19.331Z,14.17
2019-05-14T09:08:49.525Z,14.31
2019-05-14T09:11:25.641Z,14.00
2019-05-14T09:13:59.232Z,13.90
2019-05-14T09:16:39.528Z,13.92
2019-05-14T09:18:59.234Z,14.02
2019-05-14T09:21:29.700Z,13.52
2019-05-14T09:23:59.347Z,13.84
2019-05-14T09:26:28.806Z,13.94
2019-05-14T09:28:58.689Z,14.15
2019-05-14T09:31:34.824Z,14.24
2019-05-14T09:34:04.905Z,13.73
2019-05-14T09:36:39.620Z,13.24
2019-05-14T09:39:12.397Z,13.26
2019-05-14T09:41:48.247Z,13.02
2019-05-14T09:44:18.741Z,13.40
2019-05-14T09:46:55.759Z,13.84
2019-05-14T09:49:28.061Z,14.17
2019-05-14T09:52:00.042Z,14.42
2019-05-14T09:54:30.714Z,13.91
2019-05-14T09:57:01.834Z,14.01
2019-05-14T09:59:34.793Z,14.03
2019-05-14T10:02:05.128Z,13.87
2019-05-14T10:04:34.313Z,13.93
2019-05-14T10:07:04.948Z,14.46
2019-05-14T10:09:34.501Z,14.70
2019-05-14T10:12:03.668Z,15.17
2019-05-14T10:14:32.882Z,15.75
2019-05-14T10:17:03.542Z,15.09
2019-05-14T10:19:32.726Z,15.23
2019-05-14T10:22:01.909Z,14.67
2019-05-14T10:24:31.099Z,14.41
2019-05-14T10:27:00.280Z,14.39
2019-05-14T10:29:29.472Z,13.97
2019-05-14T10:31:59.331Z,13.73
2019-05-14T10:34:28.865Z,14.04
2019-05-14T10:36:59.239Z,14.68
2019-05-14T10:39:29.952Z,14.74
2019-05-14T10:41:59.476Z,14.87
2019-05-14T10:44:29.541Z,14.33
2019-05-14T10:47:00.088Z,14.70
2019-05-14T10:49:30.396Z,15.56
2019-05-14T10:52:04.380Z,15.92
2019-05-14T10:54:40.276Z,16.14
2019-05-14T10:57:11.723Z,16.83
2019-05-14T10:59:41.993Z,16.54
2019-05-14T11:02:12.159Z,16.80
2019-05-14T11:04:48.501Z,16.31
2019-05-14T11:07:18.685Z,15.78
2019-05-14T11:09:50.952Z,15.99
2019-05-14T11:12:29.611Z,16.35
2019-05-14T11:15:00.027Z,16.44
2019-05-14T11:17:29.442Z,17.45
2019-05-14T11:19:59.454Z,17.57
2019-05-14T11:22:29.024Z,17.02
2019-05-14T11:24:59.177Z,16.88
2019-05-14T11:27:34.675Z,17.20
2019-05-14T11:30:04.640Z,17.54
2019-05-14T11:32:34.635Z,17.81
2019-05-14T11:35:04.472Z,17.49
2019-05-14T11:37:41.105Z,17.19
2019-05-14T11:40:11.489Z,17.10
2019-05-14T11:42:59.410Z,17.06
2019-05-14T11:45:30.916Z,15.98
2019-05-14T11:48:00.892Z,16.11
2019-05-14T11:50:34.870Z,16.69
2019-05-14T11:53:09.607Z,17.70
2019-05-14T11:55:50.729Z,17.90
2019-05-14T11:58:41.532Z,18.30
2019-05-14T12:01:12.898Z,17.64
2019-05-14T12:03:44.638Z,17.83
2019-05-14T12:06:18.644Z,17.46
2019-05-14T12:08:51.235Z,17.29
2019-05-14T12:11:21.869Z,17.28
2019-05-14T12:13:54.005Z,17.77
2019-05-14T12:16:24.511Z,17.76
2019-05-14T12:18:55.223Z,17.20
2019-05-14T12:21:28.874Z,16.51
2019-05-14T12:24:06.146Z,16.55
2019-05-14T12:26:38.676Z,17.39
2019-05-14T12:29:12.369Z,18.01
2019-05-14T12:31:43.054Z,17.65
2019-05-14T12:34:13.100Z,17.26
2019-05-14T12:36:54.239Z,17.08
2019-05-14T12:39:23.701Z,16.87
2019-05-14T12:41:54.031Z,16.44
2019-05-14T12:44:24.449Z,15.74
2019-05-14T12:46:54.458Z,15.88
2019-05-14T12:49:25.380Z,16.90
2019-05-14T12:51:55.142Z,17.61
2019-05-14T12:54:24.896Z,18.09
2019-05-14T12:56:55.224Z,18.22
2019-05-14T12:59:30.861Z,18.09
2019-05-14T13:02:02.345Z,17.36
2019-05-14T13:04:32.932Z,17.07
2019-05-14T13:07:03.921Z,16.76
2019-05-14T13:09:38.518Z,17.86
2019-05-14T13:12:11.384Z,18.15
2019-05-14T13:14:48.935Z,18.02
2019-05-14T13:17:29.072Z,17.31
2019-05-14T13:20:02.001Z,16.72
2019-05-14T13:22:44.738Z,16.55
2019-05-14T13:25:10.701Z,16.79
2019-05-14T13:27:44.379Z,17.46
2019-05-14T13:30:23.632Z,17.41
2019-05-14T13:32:59.230Z,17.74
2019-05-14T13:35:34.913Z,18.17
2019-05-14T13:38:06.132Z,18.49
2019-05-14T13:40:39.233Z,18.43
2019-05-14T13:43:14.370Z,19.19
2019-05-14T13:45:49.509Z,18.89
2019-05-14T13:48:22.757Z,18.72
2019-05-14T13:50:55.445Z,19.08
2019-05-14T13:53:29.533Z,19.10
2019-05-14T13:55:59.721Z,19.96
2019-05-14T13:58:29.495Z,19.97
2019-05-14T14:00:59.670Z,20.11
2019-05-14T14:03:30.080Z,20.14
2019-05-14T14:05:59.677Z,19.51
2019-05-14T14:08:30.120Z,19.36
2019-05-14T14:11:02.818Z,19.03
2019-05-14T14:13:31.530Z,18.33
2019-05-14T14:16:01.117Z,18.45
2019-05-14T14:18:33.921Z,19.18
2019-05-14T14:21:09.109Z,19.03
2019-05-14T14:23:39.582Z,18.05
2019-05-14T14:26:12.324Z,18.14
2019-05-14T14:28:43.467Z,17.74
2019-05-14T14:31:13.562Z,18.06
2019-05-14T14:33:44.697Z,18.33
2019-05-14T14:36:15.168Z,17.68
2019-05-14T14:38:44.352Z,17.72
2019-05-14T14:41:19.026Z,17.35
2019-05-14T14:43:53.134Z,17.85
2019-05-14T14:46:19.958Z,18.51
2019-05-14T14:48:52.665Z,19.24
2019-05-14T14:51:22.200Z,19.48
2019-05-14T14:53:59.660Z,18.89
2019-05-14T14:56:22.600Z,18.56
2019-05-14T14:58:54.609Z,17.41
2019-05-14T15:01:24.159Z,17.68
2019-05-14T15:03:53.748Z,17.15
2019-05-14T15:06:23.548Z,17.52
2019-05-14T15:08:53.165Z,17.88
2019-05-14T15:11:23.187Z,17.70
2019-05-14T15:13:58.780Z,17.95
2019-05-14T15:16:34.089Z,19.10
2019-05-14T15:19:03.582Z,19.77
2019-05-14T15:21:32.608Z,19.61
2019-05-14T15:24:11.947Z,18.85
2019-05-14T15:26:34.850Z,19.04
2019-05-14T15:29:04.073Z,19.03
2019-05-14T15:31:33.871Z,18.44
2019-05-14T15:34:03.025Z,18.51
2019-05-14T15:36:32.530Z,18.25
2019-05-14T15:39:02.537Z,17.71
2019-05-14T15:41:32.340Z,16.85
2019-05-14T15:44:01.520Z,17.22
2019-05-14T15:46:31.058Z,17.33
2019-05-14T15:49:00.993Z,17.57
2019-05-14T15:51:30.405Z,17.61
2019-05-14T15:54:15.605Z,17.57
2019-05-14T15:56:33.031Z,17.72
2019-05-14T15:59:03.870Z,18.51
2019-05-14T16:01:33.433Z,19.11
2019-05-14T16:04:02.617Z,18.40
2019-05-14T16:06:33.026Z,18.82
2019-05-14T16:09:02.211Z,18.50
2019-05-14T16:11:31.682Z,18.57
2019-05-14T16:14:00.861Z,18.18
2019-05-14T16:16:30.061Z,17.57
2019-05-14T16:18:59.210Z,17.08
2019-05-14T16:21:29.070Z,17.24
2019-05-14T16:23:59.057Z,17.30
2019-05-14T16:26:29.246Z,17.90
2019-05-14T16:28:59.244Z,17.87
2019-05-14T16:31:37.261Z,17.64
2019-05-14T16:34:04.637Z,17.33
2019-05-14T16:36:33.809Z,17.76
2019-05-14T16:39:04.970Z,17.70
2019-05-14T16:41:34.760Z,17.50
2019-05-14T16:44:04.175Z,17.22
2019-05-14T16:46:33.336Z,17.70
2019-05-14T16:49:02.524Z,17.16
2019-05-14T16:51:31.696Z,16.60
2019-05-14T16:54:00.894Z,16.77
2019-05-14T16:56:31.275Z,16.57
2019-05-14T16:59:03.234Z,16.85
2019-05-14T17:01:34.056Z,16.63
2019-05-14T17:04:09.283Z,16.61
2019-05-14T17:06:41.263Z,16.50
2019-05-14T17:09:13.230Z,16.34
2019-05-14T17:11:43.759Z,16.23
2019-05-14T17:14:19.327Z,16.94
2019-05-14T17:16:49.227Z,17.65
2019-05-14T17:19:19.807Z,18.15
2019-05-14T17:21:55.451Z,18.21
2019-05-14T17:24:35.004Z,17.59
2019-05-14T17:27:05.357Z,17.48
2019-05-14T17:29:35.141Z,17.03
2019-05-14T17:32:05.383Z,16.42
2019-05-14T17:34:34.953Z,15.92
2019-05-14T17:37:04.800Z,16.24
2019-05-14T17:39:34.001Z,16.68
2019-05-14T17:42:03.167Z,16.54
2019-05-14T17:44:32.757Z,16.59
2019-05-14T17:47:08.600Z,16.00
2019-05-14T17:49:39.108Z,15.97
2019-05-14T17:52:10.789Z,15.78
2019-05-14T17:54:42.079Z,15.51
2019-05-14T17:57:12.168Z,15.68
2019-05-14T17:59:42.422Z,15.29
2019-05-14T18:02:11.726Z,15.38
2019-05-14T18:04:40.967Z,15.31
2019-05-14T18:07:11.568Z,15.10
2019-05-14T18:09:41.766Z,15.37
2019-05-14T18:12:11.411Z,15.25
2019-05-14T18:14:42.494Z,15.33
2019-05-14T18:17:14.736Z,15.16
2019-05-14T18:19:43.979Z,15.10
2019-05-14T18:22:13.638Z,15.28
2019-05-14T18:24:48.700Z,15.14
2019-05-14T18:27:19.535Z,15.24
2019-05-14T18:29:49.805Z,15.02
2019-05-14T18:32:19.155Z,14.64
2019-05-14T18:34:48.829Z,14.62
2019-05-14T18:37:18.567Z,14.72
2019-05-14T18:39:48.457Z,14.68
2019-05-14T18:42:19.043Z,14.23
2019-05-14T18:44:49.759Z,14.11
2019-05-14T18:47:20.136Z,14.15
2019-05-14T18:49:49.786Z,14.04
2019-05-14T18:52:20.465Z,14.02
2019-05-14T18:54:49.848Z,14.01
2019-05-14T18:57:19.050Z,13.98
2019-05-14T18:59:49.283Z,13.86
2019-05-14T19:02:21.326Z,13.85
2019-05-14T19:04:50.894Z,13.96
2019-05-14T19:07:20.423Z,13.94
2019-05-14T19:09:49.885Z,13.96
2019-05-14T19:12:20.026Z,13.97
2019-05-14T19:14:49.777Z,13.83
2019-05-14T19:17:18.998Z,14.00
2019-05-14T19:19:48.503Z,14.09
2019-05-14T19:22:17.700Z,13.75
2019-05-14T19:24:49.080Z,13.78
2019-05-14T19:27:17.768Z,13.75
2019-05-14T19:29:48.402Z,13.61
2019-05-14T19:32:19.121Z,13.62
2019-05-14T19:34:49.230Z,13.68
2019-05-14T19:37:19.183Z,13.46
2019-05-14T19:39:52.844Z,13.53
2019-05-14T19:42:22.104Z,13.57
2019-05-14T19:44:51.270Z,13.52
2019-05-14T19:47:20.828Z,13.40
2019-05-14T19:49:50.084Z,13.44
2019-05-14T19:52:21.081Z,13.40
2019-05-14T19:54:51.068Z,13.41
2019-05-14T19:57:20.264Z,13.30
2019-05-14T19:59:58.110Z,13.17
2019-05-14T20:02:29.382Z,13.14
2019-05-14T20:04:59.787Z,12.94
2019-05-14T20:07:31.998Z,12.81
2019-05-14T20:10:12.512Z,12.79
2019-05-14T20:12:41.969Z,12.60
2019-05-14T20:15:11.542Z,12.49
2019-05-14T20:17:43.616Z,12.40
2019-05-14T20:20:13.998Z,12.41
2019-05-14T20:22:44.292Z,12.31
2019-05-14T20:25:13.582Z,12.24
2019-05-14T20:27:43.956Z,12.16
2019-05-14T20:30:14.390Z,11.82
2019-05-14T20:32:44.478Z,11.73
2019-05-14T20:35:29.989Z,11.68
2019-05-14T20:37:49.340Z,11.71
2019-05-14T20:40:18.442Z,11.82
2019-05-14T20:42:58.999Z,11.65
2019-05-14T20:45:29.007Z,11.66
2019-05-14T20:47:58.699Z,11.69
2019-05-14T20:50:29.052Z,11.75
2019-05-14T20:52:59.198Z,11.54
2019-05-14T20:55:38.929Z,11.45
2019-05-14T20:58:11.265Z,11.46
2019-05-14T21:00:41.360Z,11.57
2019-05-14T21:03:11.974Z,11.53
2019-05-14T21:05:42.492Z,11.34
2019-05-14T21:08:13.525Z,11.15
2019-05-14T21:10:43.053Z,11.16
2019-05-14T21:13:15.414Z,11.17
2019-05-14T21:15:48.168Z,11.17
2019-05-14T21:18:35.412Z,11.13
2019-05-14T21:21:10.821Z,11.14
2019-05-14T21:23:39.118Z,11.04
2019-05-14T21:26:10.356Z,10.78
2019-05-14T21:28:40.420Z,10.76
2019-05-14T21:31:10.506Z,10.76
2019-05-14T21:33:39.827Z,10.71
2019-05-14T21:36:12.286Z,10.59
2019-05-14T21:38:41.133Z,10.55
2019-05-14T21:41:11.990Z,10.31
2019-05-14T21:43:41.386Z,10.21
2019-05-14T21:46:10.895Z,10.11
2019-05-14T21:48:40.896Z,9.95
2019-05-14T21:51:10.081Z,10.01
2019-05-14T21:53:41.316Z,9.82
2019-05-14T21:56:10.464Z,9.69
2019-05-14T21:58:39.656Z,9.72
2019-05-14T22:01:10.547Z,9.79
2019-05-14T22:03:40.313Z,9.56
2019-05-14T22:06:10.290Z,9.63
2019-05-14T22:08:39.770Z,9.55
2019-05-14T22:11:11.081Z,9.52
2019-05-14T22:13:40.469Z,9.41
2019-05-14T22:16:09.651Z,9.28
2019-05-14T22:18:42.705Z,9.26
2019-05-14T22:21:12.219Z,9.06
2019-05-14T22:23:43.072Z,8.98
2019-05-14T22:26:12.641Z,8.86
2019-05-14T22:28:42.462Z,9.02
2019-05-14T22:31:17.119Z,8.91
2019-05-14T22:33:48.090Z,8.92
2019-05-14T22:36:21.317Z,8.99
2019-05-14T22:39:03.968Z,9.04
2019-05-14T22:41:34.104Z,9.27
2019-05-14T22:44:04.119Z,9.03
2019-05-14T22:46:34.112Z,8.93
2019-05-14T22:49:03.277Z,8.80
2019-05-14T22:51:33.272Z,8.83
2019-05-14T22:54:02.908Z,8.49
2019-05-14T22:56:32.391Z,8.38
2019-05-14T22:59:02.386Z,8.14
2019-05-14T23:01:33.979Z,8.26
2019-05-14T23:04:03.251Z,8.07
2019-05-14T23:06:33.728Z,8.20
2019-05-14T23:09:03.130Z,8.01
2019-05-14T23:11:32.866Z,7.98
2019-05-14T23:14:06.963Z,7.97
2019-05-14T23:16:41.161Z,7.94
2019-05-14T23:19:11.581Z,7.89
2019-05-14T23:21:41.053Z,7.89
2019-05-14T23:24:10.752Z,7.77
2019-05-14T23:26:43.563Z,7.76
2019-05-14T23:29:14.483Z,7.88
2019-05-14T23:31:44.486Z,7.76
2019-05-14T23:34:15.066Z,7.72
2019-05-14T23:36:45.052Z,7.64
2019-05-14T23:39:16.365Z,7.80
2019-05-14T23:41:48.773Z,7.75
2019-05-14T23:44:20.288Z,7.63
2019-05-14T23:46:58.640Z,7.66
2019-05-14T23:49:28.683Z,7.60
2019-05-14T23:51:58.247Z,7.56
2019-05-14T23:54:29.759Z,7.49
2019-05-14T23:57:02.983Z,7.41
2019-05-14T23:59:35.584Z,7.39
